sensor_id;sensor_type;location;lat;lon;timestamp;P1;durP1;ratioP1;P2;durP2;ratioP2
27580;SDS011;63557;52.302;7.964;2022-11-15T00:01:18;33.17;;;23.08;;
27580;SDS011;63557;52.302;7.964;2022-11-15T00:06:37;31.63;;;21.63;;
27580;SDS011;63557;52.302;7.964;2022-11-15T00:11:56;32.55;;;22.23;;
27580;SDS011;63557;52.302;7.964;2022-11-15T00:17:15;30.17;;;21.15;;
27580;SDS011;63557;52.302;7.964;2022-11-15T00:22:34;27.95;;;19.60;;
27580;SDS011;63557;52.302;7.964;2022-11-15T00:27:54;27.13;;;19.55;;
27580;SDS011;63557;52.302;7.964;2022-11-15T00:33:13;29.10;;;18.65;;
27580;SDS011;63557;52.302;7.964;2022-11-15T00:38:33;31.45;;;19.77;;
27580;SDS011;63557;52.302;7.964;2022-11-15T00:43:52;34.42;;;19.58;;
27580;SDS011;63557;52.302;7.964;2022-11-15T00:49:11;34.42;;;19.52;;
27580;SDS011;63557;52.302;7.964;2022-11-15T00:54:30;44.58;;;21.92;;
27580;SDS011;63557;52.302;7.964;2022-11-15T00:59:48;41.45;;;21.25;;
27580;SDS011;63557;52.302;7.964;2022-11-15T01:05:08;40.22;;;20.92;;
27580;SDS011;63557;52.302;7.964;2022-11-15T01:10:27;37.45;;;20.40;;
27580;SDS011;63557;52.302;7.964;2022-11-15T01:15:46;27.55;;;18.00;;
27580;SDS011;63557;52.302;7.964;2022-11-15T01:21:05;27.17;;;17.60;;
27580;SDS011;63557;52.302;7.964;2022-11-15T01:26:25;26.58;;;17.25;;
27580;SDS011;63557;52.302;7.964;2022-11-15T01:31:44;22.83;;;15.20;;
27580;SDS011;63557;52.302;7.964;2022-11-15T01:37:02;21.05;;;15.40;;
27580;SDS011;63557;52.302;7.964;2022-11-15T01:42:21;20.23;;;15.40;;
27580;SDS011;63557;52.302;7.964;2022-11-15T01:47:41;19.77;;;15.48;;
27580;SDS011;63557;52.302;7.964;2022-11-15T01:53:01;21.08;;;14.85;;
27580;SDS011;63557;52.302;7.964;2022-11-15T01:58:20;20.90;;;14.20;;
27580;SDS011;63557;52.302;7.964;2022-11-15T02:03:50;24.73;;;16.65;;
27580;SDS011;63557;52.302;7.964;2022-11-15T02:09:10;23.35;;;16.58;;
27580;SDS011;63557;52.302;7.964;2022-11-15T02:14:29;22.73;;;14.75;;
27580;SDS011;63557;52.302;7.964;2022-11-15T02:25:32;23.20;;;16.00;;
27580;SDS011;63557;52.302;7.964;2022-11-15T02:36:22;20.27;;;15.18;;
27580;SDS011;63557;52.302;7.964;2022-11-15T02:41:57;29.67;;;15.07;;
27580;SDS011;63557;52.302;7.964;2022-11-15T02:47:16;19.65;;;14.27;;
27580;SDS011;63557;52.302;7.964;2022-11-15T02:52:36;21.35;;;14.48;;
27580;SDS011;63557;52.302;7.964;2022-11-15T03:14:59;19.58;;;14.65;;
27580;SDS011;63557;52.302;7.964;2022-11-15T03:20:19;20.10;;;15.13;;
27580;SDS011;63557;52.302;7.964;2022-11-15T03:25:40;20.90;;;15.40;;
27580;SDS011;63557;52.302;7.964;2022-11-15T03:31:00;23.02;;;14.88;;
27580;SDS011;63557;52.302;7.964;2022-11-15T03:36:21;21.13;;;15.15;;
27580;SDS011;63557;52.302;7.964;2022-11-15T03:41:45;19.48;;;14.43;;
27580;SDS011;63557;52.302;7.964;2022-11-15T03:47:12;24.58;;;14.88;;
27580;SDS011;63557;52.302;7.964;2022-11-15T03:52:32;24.00;;;14.82;;
27580;SDS011;63557;52.302;7.964;2022-11-15T03:57:53;23.00;;;15.13;;
27580;SDS011;63557;52.302;7.964;2022-11-15T04:03:13;26.40;;;15.80;;
27580;SDS011;63557;52.302;7.964;2022-11-15T04:08:32;18.30;;;14.70;;
27580;SDS011;63557;52.302;7.964;2022-11-15T04:13:51;21.30;;;15.55;;
27580;SDS011;63557;52.302;7.964;2022-11-15T04:19:10;25.52;;;14.85;;
27580;SDS011;63557;52.302;7.964;2022-11-15T04:24:48;20.25;;;14.82;;
27580;SDS011;63557;52.302;7.964;2022-11-15T04:30:07;19.42;;;14.15;;
27580;SDS011;63557;52.302;7.964;2022-11-15T04:35:26;22.50;;;14.95;;
27580;SDS011;63557;52.302;7.964;2022-11-15T04:40:45;23.83;;;15.38;;
27580;SDS011;63557;52.302;7.964;2022-11-15T04:46:04;18.90;;;14.30;;
27580;SDS011;63557;52.302;7.964;2022-11-15T04:51:23;20.25;;;14.50;;
27580;SDS011;63557;52.302;7.964;2022-11-15T04:56:42;24.60;;;14.63;;
27580;SDS011;63557;52.302;7.964;2022-11-15T05:02:01;18.55;;;14.65;;
27580;SDS011;63557;52.302;7.964;2022-11-15T05:07:20;20.38;;;15.05;;
27580;SDS011;63557;52.302;7.964;2022-11-15T05:12:39;25.05;;;16.08;;
27580;SDS011;63557;52.302;7.964;2022-11-15T05:17:58;23.90;;;15.07;;
27580;SDS011;63557;52.302;7.964;2022-11-15T05:23:18;21.98;;;15.63;;
27580;SDS011;63557;52.302;7.964;2022-11-15T05:28:37;24.25;;;15.00;;
27580;SDS011;63557;52.302;7.964;2022-11-15T05:33:56;21.40;;;15.32;;
27580;SDS011;63557;52.302;7.964;2022-11-15T05:39:15;22.17;;;15.10;;
27580;SDS011;63557;52.302;7.964;2022-11-15T05:44:35;19.98;;;13.85;;
27580;SDS011;63557;52.302;7.964;2022-11-15T05:49:54;27.08;;;16.25;;
27580;SDS011;63557;52.302;7.964;2022-11-15T05:55:14;22.10;;;15.68;;
27580;SDS011;63557;52.302;7.964;2022-11-15T06:00:33;22.20;;;15.13;;
27580;SDS011;63557;52.302;7.964;2022-11-15T06:05:52;24.88;;;15.77;;
27580;SDS011;63557;52.302;7.964;2022-11-15T06:11:11;19.42;;;14.43;;
27580;SDS011;63557;52.302;7.964;2022-11-15T06:16:30;18.50;;;13.63;;
27580;SDS011;63557;52.302;7.964;2022-11-15T06:21:49;25.10;;;15.23;;
27580;SDS011;63557;52.302;7.964;2022-11-15T06:27:07;24.23;;;15.65;;
27580;SDS011;63557;52.302;7.964;2022-11-15T06:32:28;21.65;;;15.45;;
27580;SDS011;63557;52.302;7.964;2022-11-15T06:37:47;23.80;;;15.57;;
27580;SDS011;63557;52.302;7.964;2022-11-15T06:43:06;24.05;;;14.57;;
27580;SDS011;63557;52.302;7.964;2022-11-15T06:48:25;21.67;;;15.40;;
27580;SDS011;63557;52.302;7.964;2022-11-15T06:53:44;26.02;;;16.00;;
27580;SDS011;63557;52.302;7.964;2022-11-15T06:59:03;24.92;;;15.25;;
27580;SDS011;63557;52.302;7.964;2022-11-15T07:04:22;22.98;;;15.88;;
27580;SDS011;63557;52.302;7.964;2022-11-15T07:09:40;25.70;;;15.57;;
27580;SDS011;63557;52.302;7.964;2022-11-15T07:14:59;24.08;;;15.00;;
27580;SDS011;63557;52.302;7.964;2022-11-15T07:20:18;22.13;;;15.02;;
27580;SDS011;63557;52.302;7.964;2022-11-15T07:25:37;25.08;;;16.33;;
27580;SDS011;63557;52.302;7.964;2022-11-15T07:30:56;20.05;;;14.10;;
27580;SDS011;63557;52.302;7.964;2022-11-15T07:36:15;19.27;;;14.63;;
27580;SDS011;63557;52.302;7.964;2022-11-15T07:41:34;20.83;;;15.23;;
27580;SDS011;63557;52.302;7.964;2022-11-15T07:46:53;21.55;;;13.70;;
27580;SDS011;63557;52.302;7.964;2022-11-15T07:52:13;22.42;;;14.32;;
27580;SDS011;63557;52.302;7.964;2022-11-15T07:57:32;16.48;;;14.65;;
27580;SDS011;63557;52.302;7.964;2022-11-15T08:02:51;18.50;;;13.10;;
27580;SDS011;63557;52.302;7.964;2022-11-15T08:08:10;15.25;;;12.27;;
27580;SDS011;63557;52.302;7.964;2022-11-15T08:13:29;17.13;;;11.80;;
27580;SDS011;63557;52.302;7.964;2022-11-15T08:18:48;15.25;;;12.13;;
27580;SDS011;63557;52.302;7.964;2022-11-15T08:24:08;14.18;;;11.38;;
27580;SDS011;63557;52.302;7.964;2022-11-15T08:29:28;14.20;;;10.90;;
27580;SDS011;63557;52.302;7.964;2022-11-15T08:34:47;16.00;;;10.82;;
27580;SDS011;63557;52.302;7.964;2022-11-15T08:40:06;15.52;;;11.63;;
27580;SDS011;63557;52.302;7.964;2022-11-15T08:45:25;14.32;;;10.82;;
27580;SDS011;63557;52.302;7.964;2022-11-15T08:50:44;13.50;;;10.57;;
27580;SDS011;63557;52.302;7.964;2022-11-15T08:56:03;13.23;;;11.13;;
27580;SDS011;63557;52.302;7.964;2022-11-15T09:01:25;13.52;;;10.68;;
27580;SDS011;63557;52.302;7.964;2022-11-15T09:06:44;15.88;;;10.75;;
27580;SDS011;63557;52.302;7.964;2022-11-15T09:12:03;13.55;;;10.95;;
27580;SDS011;63557;52.302;7.964;2022-11-15T09:17:22;15.93;;;10.15;;
27580;SDS011;63557;52.302;7.964;2022-11-15T09:22:41;18.48;;;10.23;;
27580;SDS011;63557;52.302;7.964;2022-11-15T09:28:00;12.68;;;9.73;;
27580;SDS011;63557;52.302;7.964;2022-11-15T09:33:19;12.05;;;8.77;;
27580;SDS011;63557;52.302;7.964;2022-11-15T09:38:38;9.57;;;8.05;;
27580;SDS011;63557;52.302;7.964;2022-11-15T09:49:22;9.10;;;7.13;;
27580;SDS011;63557;52.302;7.964;2022-11-15T09:54:47;9.25;;;6.68;;
27580;SDS011;63557;52.302;7.964;2022-11-15T10:04:48;7.67;;;5.70;;
27580;SDS011;63557;52.302;7.964;2022-11-15T10:09:51;7.57;;;5.40;;
27580;SDS011;63557;52.302;7.964;2022-11-15T10:14:56;4.80;;;4.35;;
27580;SDS011;63557;52.302;7.964;2022-11-15T10:20:04;6.87;;;4.23;;
27580;SDS011;63557;52.302;7.964;2022-11-15T10:30:35;5.03;;;2.70;;
27580;SDS011;63557;52.302;7.964;2022-11-15T10:35:36;3.67;;;2.90;;
27580;SDS011;63557;52.302;7.964;2022-11-15T10:40:38;3.78;;;2.33;;
27580;SDS011;63557;52.302;7.964;2022-11-15T10:45:38;3.40;;;2.47;;
27580;SDS011;63557;52.302;7.964;2022-11-15T10:50:39;3.47;;;2.80;;
27580;SDS011;63557;52.302;7.964;2022-11-15T10:55:40;3.53;;;2.92;;
27580;SDS011;63557;52.302;7.964;2022-11-15T11:00:40;3.88;;;2.60;;
27580;SDS011;63557;52.302;7.964;2022-11-15T11:05:41;2.80;;;2.45;;
27580;SDS011;63557;52.302;7.964;2022-11-15T11:11:00;4.10;;;2.53;;
27580;SDS011;63557;52.302;7.964;2022-11-15T11:21:09;2.22;;;2.00;;
27580;SDS011;63557;52.302;7.964;2022-11-15T11:36:39;3.45;;;2.13;;
27580;SDS011;63557;52.302;7.964;2022-11-15T11:57:21;5.25;;;1.77;;
27580;SDS011;63557;52.302;7.964;2022-11-15T12:02:30;4.20;;;2.65;;
27580;SDS011;63557;52.302;7.964;2022-11-15T12:07:32;2.47;;;1.60;;
27580;SDS011;63557;52.302;7.964;2022-11-15T12:17:54;2.35;;;1.80;;
27580;SDS011;63557;52.302;7.964;2022-11-15T12:23:04;1.80;;;1.60;;
27580;SDS011;63557;52.302;7.964;2022-11-15T12:38:53;2.28;;;1.40;;
27580;SDS011;63557;52.302;7.964;2022-11-15T12:43:55;2.33;;;1.42;;
27580;SDS011;63557;52.302;7.964;2022-11-15T12:53:56;4.63;;;1.57;;
27580;SDS011;63557;52.302;7.964;2022-11-15T12:58:57;1.80;;;1.40;;
27580;SDS011;63557;52.302;7.964;2022-11-15T13:19:42;3.05;;;1.67;;
27580;SDS011;63557;52.302;7.964;2022-11-15T13:24:43;2.50;;;1.63;;
27580;SDS011;63557;52.302;7.964;2022-11-15T13:29:43;2.67;;;1.70;;
27580;SDS011;63557;52.302;7.964;2022-11-15T13:34:47;1.92;;;1.58;;
27580;SDS011;63557;52.302;7.964;2022-11-15T13:39:48;3.22;;;1.58;;
27580;SDS011;63557;52.302;7.964;2022-11-15T13:44:56;2.22;;;1.95;;
27580;SDS011;63557;52.302;7.964;2022-11-15T13:49:57;3.53;;;2.10;;
27580;SDS011;63557;52.302;7.964;2022-11-15T13:55:01;4.47;;;2.00;;
27580;SDS011;63557;52.302;7.964;2022-11-15T14:00:05;5.45;;;1.90;;
27580;SDS011;63557;52.302;7.964;2022-11-15T14:05:18;2.72;;;1.77;;
27580;SDS011;63557;52.302;7.964;2022-11-15T14:10:29;4.72;;;2.20;;
27580;SDS011;63557;52.302;7.964;2022-11-15T14:15:32;2.25;;;2.05;;
27580;SDS011;63557;52.302;7.964;2022-11-15T14:20:36;4.15;;;1.90;;
27580;SDS011;63557;52.302;7.964;2022-11-15T14:25:37;2.73;;;2.10;;
27580;SDS011;63557;52.302;7.964;2022-11-15T14:30:38;4.00;;;2.50;;
27580;SDS011;63557;52.302;7.964;2022-11-15T14:35:39;2.58;;;2.30;;
27580;SDS011;63557;52.302;7.964;2022-11-15T14:40:40;7.43;;;3.00;;
27580;SDS011;63557;52.302;7.964;2022-11-15T14:45:41;107.82;;;14.45;;
27580;SDS011;63557;52.302;7.964;2022-11-15T14:50:44;6.18;;;3.03;;
27580;SDS011;63557;52.302;7.964;2022-11-15T14:55:45;4.55;;;3.25;;
27580;SDS011;63557;52.302;7.964;2022-11-15T15:00:45;4.15;;;3.00;;
27580;SDS011;63557;52.302;7.964;2022-11-15T15:05:45;44.27;;;7.13;;
27580;SDS011;63557;52.302;7.964;2022-11-15T15:10:46;8.57;;;3.50;;
27580;SDS011;63557;52.302;7.964;2022-11-15T15:15:46;7.23;;;3.03;;
27580;SDS011;63557;52.302;7.964;2022-11-15T15:20:49;6.50;;;4.18;;
27580;SDS011;63557;52.302;7.964;2022-11-15T15:25:52;7.60;;;3.55;;
27580;SDS011;63557;52.302;7.964;2022-11-15T15:30:53;6.53;;;3.90;;
27580;SDS011;63557;52.302;7.964;2022-11-15T15:35:53;7.97;;;3.88;;
27580;SDS011;63557;52.302;7.964;2022-11-15T15:40:54;13.20;;;4.43;;
27580;SDS011;63557;52.302;7.964;2022-11-15T15:45:55;5.32;;;3.92;;
27580;SDS011;63557;52.302;7.964;2022-11-15T15:50:55;19.30;;;5.73;;
27580;SDS011;63557;52.302;7.964;2022-11-15T15:55:55;9.77;;;4.33;;
27580;SDS011;63557;52.302;7.964;2022-11-15T16:00:56;5.80;;;3.80;;
27580;SDS011;63557;52.302;7.964;2022-11-15T16:05:56;4.87;;;3.70;;
27580;SDS011;63557;52.302;7.964;2022-11-15T16:10:58;11.45;;;4.35;;
27580;SDS011;63557;52.302;7.964;2022-11-15T16:15:58;9.43;;;4.60;;
27580;SDS011;63557;52.302;7.964;2022-11-15T16:21:00;11.75;;;5.05;;
27580;SDS011;63557;52.302;7.964;2022-11-15T16:26:00;8.18;;;5.32;;
27580;SDS011;63557;52.302;7.964;2022-11-15T16:31:08;8.98;;;4.05;;
27580;SDS011;63557;52.302;7.964;2022-11-15T16:36:24;6.07;;;3.95;;
27580;SDS011;63557;52.302;7.964;2022-11-15T16:41:25;7.63;;;4.18;;
27580;SDS011;63557;52.302;7.964;2022-11-15T16:46:26;8.00;;;4.10;;
27580;SDS011;63557;52.302;7.964;2022-11-15T16:51:27;7.65;;;4.00;;
27580;SDS011;63557;52.302;7.964;2022-11-15T16:56:28;7.37;;;3.73;;
27580;SDS011;63557;52.302;7.964;2022-11-15T17:01:30;8.43;;;5.03;;
27580;SDS011;63557;52.302;7.964;2022-11-15T17:06:30;10.30;;;5.35;;
27580;SDS011;63557;52.302;7.964;2022-11-15T17:11:31;7.43;;;5.33;;
27580;SDS011;63557;52.302;7.964;2022-11-15T17:16:31;5.97;;;4.63;;
27580;SDS011;63557;52.302;7.964;2022-11-15T17:21:33;10.07;;;5.55;;
27580;SDS011;63557;52.302;7.964;2022-11-15T17:26:33;8.43;;;5.53;;
27580;SDS011;63557;52.302;7.964;2022-11-15T17:31:34;10.43;;;6.40;;
27580;SDS011;63557;52.302;7.964;2022-11-15T17:36:35;9.40;;;5.88;;
27580;SDS011;63557;52.302;7.964;2022-11-15T17:41:35;8.03;;;5.20;;
27580;SDS011;63557;52.302;7.964;2022-11-15T17:46:37;10.88;;;7.07;;
27580;SDS011;63557;52.302;7.964;2022-11-15T17:51:37;12.25;;;6.13;;
27580;SDS011;63557;52.302;7.964;2022-11-15T17:56:38;9.50;;;6.67;;
27580;SDS011;63557;52.302;7.964;2022-11-15T18:01:39;11.98;;;6.20;;
27580;SDS011;63557;52.302;7.964;2022-11-15T18:06:39;11.23;;;6.90;;
27580;SDS011;63557;52.302;7.964;2022-11-15T18:11:40;13.02;;;7.07;;
27580;SDS011;63557;52.302;7.964;2022-11-15T18:16:42;12.23;;;8.52;;
27580;SDS011;63557;52.302;7.964;2022-11-15T18:21:43;7.90;;;6.27;;
27580;SDS011;63557;52.302;7.964;2022-11-15T18:27:04;7.30;;;5.53;;
27580;SDS011;63557;52.302;7.964;2022-11-15T18:32:05;8.02;;;5.20;;
27580;SDS011;63557;52.302;7.964;2022-11-15T18:37:10;6.30;;;4.40;;
27580;SDS011;63557;52.302;7.964;2022-11-15T18:42:10;8.25;;;4.55;;
27580;SDS011;63557;52.302;7.964;2022-11-15T18:47:11;8.57;;;5.00;;
27580;SDS011;63557;52.302;7.964;2022-11-15T18:52:11;6.87;;;5.80;;
27580;SDS011;63557;52.302;7.964;2022-11-15T18:57:11;17.60;;;8.93;;
27580;SDS011;63557;52.302;7.964;2022-11-15T19:02:12;12.20;;;7.30;;
27580;SDS011;63557;52.302;7.964;2022-11-15T19:07:12;9.70;;;6.22;;
27580;SDS011;63557;52.302;7.964;2022-11-15T19:12:12;7.40;;;4.90;;
27580;SDS011;63557;52.302;7.964;2022-11-15T19:17:13;9.38;;;5.95;;
27580;SDS011;63557;52.302;7.964;2022-11-15T19:22:13;8.23;;;4.83;;
27580;SDS011;63557;52.302;7.964;2022-11-15T19:27:14;5.63;;;4.43;;
27580;SDS011;63557;52.302;7.964;2022-11-15T19:32:14;5.73;;;4.67;;
27580;SDS011;63557;52.302;7.964;2022-11-15T19:37:14;5.77;;;4.60;;
27580;SDS011;63557;52.302;7.964;2022-11-15T19:42:15;7.03;;;5.27;;
27580;SDS011;63557;52.302;7.964;2022-11-15T19:47:15;6.60;;;4.77;;
27580;SDS011;63557;52.302;7.964;2022-11-15T19:52:15;7.80;;;5.43;;
27580;SDS011;63557;52.302;7.964;2022-11-15T19:57:16;5.35;;;4.63;;
27580;SDS011;63557;52.302;7.964;2022-11-15T20:02:16;6.70;;;4.63;;
27580;SDS011;63557;52.302;7.964;2022-11-15T20:07:16;7.60;;;4.90;;
27580;SDS011;63557;52.302;7.964;2022-11-15T20:12:17;7.63;;;5.22;;
27580;SDS011;63557;52.302;7.964;2022-11-15T20:17:17;6.03;;;5.20;;
27580;SDS011;63557;52.302;7.964;2022-11-15T20:22:18;6.83;;;5.23;;
27580;SDS011;63557;52.302;7.964;2022-11-15T20:27:18;7.57;;;5.60;;
27580;SDS011;63557;52.302;7.964;2022-11-15T20:32:19;6.68;;;5.10;;
27580;SDS011;63557;52.302;7.964;2022-11-15T20:37:19;6.47;;;5.15;;
27580;SDS011;63557;52.302;7.964;2022-11-15T20:42:20;7.72;;;5.15;;
27580;SDS011;63557;52.302;7.964;2022-11-15T20:47:20;6.17;;;4.90;;
27580;SDS011;63557;52.302;7.964;2022-11-15T20:52:20;5.83;;;4.77;;
27580;SDS011;63557;52.302;7.964;2022-11-15T20:57:21;6.07;;;5.30;;
27580;SDS011;63557;52.302;7.964;2022-11-15T21:02:21;8.57;;;5.00;;
27580;SDS011;63557;52.302;7.964;2022-11-15T21:07:21;9.20;;;5.10;;
27580;SDS011;63557;52.302;7.964;2022-11-15T21:12:22;6.13;;;5.43;;
27580;SDS011;63557;52.302;7.964;2022-11-15T21:17:22;6.87;;;5.10;;
27580;SDS011;63557;52.302;7.964;2022-11-15T21:22:22;5.17;;;4.50;;
27580;SDS011;63557;52.302;7.964;2022-11-15T21:27:23;7.43;;;4.82;;
27580;SDS011;63557;52.302;7.964;2022-11-15T21:32:23;6.97;;;4.77;;
27580;SDS011;63557;52.302;7.964;2022-11-15T21:37:24;8.23;;;4.37;;
27580;SDS011;63557;52.302;7.964;2022-11-15T21:42:24;5.55;;;4.85;;
27580;SDS011;63557;52.302;7.964;2022-11-15T21:47:24;4.93;;;4.30;;
27580;SDS011;63557;52.302;7.964;2022-11-15T21:52:25;5.93;;;4.33;;
27580;SDS011;63557;52.302;7.964;2022-11-15T21:57:25;5.50;;;4.47;;
27580;SDS011;63557;52.302;7.964;2022-11-15T22:02:29;10.50;;;5.90;;
27580;SDS011;63557;52.302;7.964;2022-11-15T22:07:29;8.13;;;5.57;;
27580;SDS011;63557;52.302;7.964;2022-11-15T22:12:29;4.53;;;3.90;;
27580;SDS011;63557;52.302;7.964;2022-11-15T22:17:30;7.05;;;4.40;;
27580;SDS011;63557;52.302;7.964;2022-11-15T22:22:49;5.35;;;4.55;;
27580;SDS011;63557;52.302;7.964;2022-11-15T22:27:49;4.83;;;4.27;;
27580;SDS011;63557;52.302;7.964;2022-11-15T22:32:50;4.95;;;4.45;;
27580;SDS011;63557;52.302;7.964;2022-11-15T22:37:50;5.20;;;4.20;;
27580;SDS011;63557;52.302;7.964;2022-11-15T22:42:51;5.82;;;4.28;;
27580;SDS011;63557;52.302;7.964;2022-11-15T22:47:52;6.27;;;4.20;;
27580;SDS011;63557;52.302;7.964;2022-11-15T22:52:52;5.53;;;4.83;;
27580;SDS011;63557;52.302;7.964;2022-11-15T22:57:52;8.10;;;4.87;;
27580;SDS011;63557;52.302;7.964;2022-11-15T23:02:53;6.30;;;4.30;;
27580;SDS011;63557;52.302;7.964;2022-11-15T23:07:53;5.40;;;4.33;;
27580;SDS011;63557;52.302;7.964;2022-11-15T23:12:54;7.10;;;4.77;;
27580;SDS011;63557;52.302;7.964;2022-11-15T23:18:12;5.53;;;3.85;;
27580;SDS011;63557;52.302;7.964;2022-11-15T23:23:13;5.45;;;4.25;;
27580;SDS011;63557;52.302;7.964;2022-11-15T23:28:13;4.85;;;4.00;;
27580;SDS011;63557;52.302;7.964;2022-11-15T23:33:14;6.13;;;4.33;;
27580;SDS011;63557;52.302;7.964;2022-11-15T23:38:34;6.85;;;4.30;;
27580;SDS011;63557;52.302;7.964;2022-11-15T23:43:36;6.57;;;4.32;;
27580;SDS011;63557;52.302;7.964;2022-11-15T23:48:36;5.03;;;4.53;;
27580;SDS011;63557;52.302;7.964;2022-11-15T23:53:37;6.90;;;4.97;;
27580;SDS011;63557;52.302;7.964;2022-11-15T23:58:37;6.53;;;4.97;;
